La Ronge Airport
CYVC : rendu visible

Aérodrome :











RETROUVEZ-NOUS SUR...

 
LOGIN :

S'inscrire | Disclaimer

   EN    FR    IT 

 









Légende :    VFR   VFR Marginal   IFR   IFR Intensif   IFR Très Intensif
Visi : 
Plafond : 
>= 8 km
>= 3000ft
5 à 8 km
1000 à 3000 ft
1500m à 5 km
500 à 1000 ft
800 à 1500m
200 à 500 ft
< 800m
< 200 ft
Symboles :   Orages  Brouillard  Fortes neiges  Fortes précipitations  Vent > 20 kt






- Altitude de l'aérodrome : 1242 ft
- Code IATA : YVC


CYVC - La Ronge

DERNIER METAR :
  • 100900Z 26006KT 15SM SKC M29/M32 A3010 RMK SLP245

METARs EXPIRÉS :
  • 100800Z 26007KT 15SM SKC M28/M31 A3012 RMK SLP250
  • 100700Z 27005KT 15SM SKC M28/M31 A3013 RMK SLP255

TAF TAF CYVC
Valide du 10 à 07h jusqu'au 10 à 19h UTC


100638Z 1007/1019 25005KT P6SM SKC
BECMG 1008/1010 30007KT
FM101100 30007KT P6SM SCT040
TEMPO 1011/1014 BKN040 RMK NXT FCST BY 101300Z



MET'MAP, la Météo Aéronautique d'un coup d'oeil ! - Copyright ORBIFLY Décembre 2007 - Disclaimer

ORBIFLY MET'MAP TEAM :

Programmation & Développement : Alexandra Zaïnal
Sur une idée originale de : Baudouin d'Aumeries
Assistance à la programmation : Marc-Olivier Méhu
Soutien technique & logistique : Manuel Goepfert

Contact : metmap@orbifly.com




SOURCES & CREDITS :

   NOAA       Earth
Advisory